createdAt,value
2023-05-25T00:02:24.969Z,5.30
2023-05-25T00:04:54.816Z,5.10
2023-05-25T00:07:24.472Z,4.72
2023-05-25T00:09:54.320Z,4.88
2023-05-25T00:12:24.083Z,5.00
2023-05-25T00:14:53.906Z,5.25
2023-05-25T00:17:30.045Z,6.22
2023-05-25T00:20:07.499Z,5.47
2023-05-25T00:22:37.310Z,4.90
2023-05-25T00:25:08.043Z,6.05
2023-05-25T00:27:37.706Z,4.90
2023-05-25T00:30:08.513Z,5.22
2023-05-25T00:32:42.035Z,4.28
2023-05-25T00:35:12.537Z,5.13
2023-05-25T00:37:42.495Z,6.15
2023-05-25T00:40:14.082Z,5.22
2023-05-25T00:42:43.942Z,5.82
2023-05-25T00:45:15.000Z,6.00
2023-05-25T00:47:48.748Z,5.68
2023-05-25T00:50:20.053Z,4.90
2023-05-25T00:52:49.890Z,5.53
2023-05-25T00:55:20.410Z,4.93
2023-05-25T00:57:55.057Z,5.38
2023-05-25T01:00:25.566Z,5.13
2023-05-25T01:02:59.520Z,4.82
2023-05-25T01:05:31.294Z,4.35
2023-05-25T01:08:02.615Z,5.35
2023-05-25T01:10:34.935Z,4.88
2023-05-25T01:13:05.605Z,4.53
2023-05-25T01:15:35.868Z,4.07
2023-05-25T01:18:09.655Z,4.95
2023-05-25T01:20:39.537Z,4.15
2023-05-25T01:23:15.232Z,5.20
2023-05-25T01:25:48.747Z,5.45
2023-05-25T01:28:21.721Z,4.10
2023-05-25T01:30:52.570Z,3.72
2023-05-25T01:33:22.260Z,4.32
2023-05-25T01:35:52.259Z,5.20
2023-05-25T01:38:24.750Z,4.18
2023-05-25T01:40:54.483Z,3.92
2023-05-25T01:43:25.071Z,3.60
2023-05-25T01:46:00.285Z,4.85
2023-05-25T01:48:40.920Z,4.45
2023-05-25T01:51:18.983Z,5.22
2023-05-25T01:53:56.497Z,4.40
2023-05-25T01:56:27.432Z,4.97
2023-05-25T02:01:27.345Z,4.00
2023-05-25T02:03:57.778Z,4.40
2023-05-25T02:06:27.564Z,3.92
2023-05-25T02:08:59.926Z,4.30
2023-05-25T02:11:29.659Z,4.80
2023-05-25T02:13:59.355Z,4.97
2023-05-25T02:16:30.324Z,4.35
2023-05-25T02:19:03.021Z,4.70
2023-05-25T02:21:32.861Z,3.70
2023-05-25T02:24:05.172Z,3.47
2023-05-25T02:26:35.881Z,3.35
2023-05-25T02:29:05.770Z,3.80
2023-05-25T02:31:35.835Z,3.65
2023-05-25T02:34:06.128Z,4.05
2023-05-25T02:36:36.515Z,3.90
2023-05-25T02:39:10.608Z,4.13
2023-05-25T02:41:41.642Z,4.63
2023-05-25T02:44:11.332Z,5.10
2023-05-25T02:46:41.227Z,4.25
2023-05-25T02:49:10.974Z,5.13
2023-05-25T02:51:40.864Z,4.13
2023-05-25T02:54:13.446Z,4.90
2023-05-25T02:56:43.159Z,4.40
2023-05-25T02:59:13.400Z,5.07
2023-05-25T03:01:43.295Z,5.20
2023-05-25T03:04:13.066Z,5.35
2023-05-25T03:06:43.472Z,5.60
2023-05-25T03:09:19.978Z,5.85
2023-05-25T03:11:52.275Z,6.15
2023-05-25T03:14:23.986Z,5.45
2023-05-25T03:17:02.833Z,5.13
2023-05-25T03:19:33.734Z,5.53
2023-05-25T03:22:03.857Z,6.20
2023-05-25T03:24:41.807Z,7.25
2023-05-25T03:27:12.494Z,5.90
2023-05-25T03:29:42.258Z,6.22
2023-05-25T03:32:12.834Z,5.78
2023-05-25T03:34:42.871Z,6.35
2023-05-25T03:37:13.690Z,6.72
2023-05-25T03:39:47.009Z,6.85
2023-05-25T03:42:16.742Z,6.47
2023-05-25T03:44:46.463Z,7.45
2023-05-25T03:47:16.419Z,5.93
2023-05-25T03:52:28.042Z,6.13
2023-05-25T03:55:01.902Z,6.05
2023-05-25T03:57:32.136Z,7.20
2023-05-25T04:00:02.277Z,6.72
2023-05-25T04:02:42.916Z,6.18
2023-05-25T04:05:13.137Z,7.18
2023-05-25T04:07:43.324Z,6.53
2023-05-25T04:10:16.087Z,6.60
2023-05-25T04:12:46.095Z,7.90
2023-05-25T04:15:17.463Z,7.53
2023-05-25T04:18:03.262Z,5.88
2023-05-25T04:20:33.431Z,8.18
2023-05-25T04:23:03.551Z,7.13
2023-05-25T04:25:37.828Z,8.07
2023-05-25T04:28:08.618Z,8.15
2023-05-25T04:30:57.262Z,9.02
2023-05-25T04:33:53.477Z,7.82
2023-05-25T04:36:28.247Z,8.05
2023-05-25T04:38:58.189Z,7.93
2023-05-25T04:41:30.677Z,7.53
2023-05-25T04:44:09.723Z,8.73
2023-05-25T04:46:46.986Z,7.78
2023-05-25T04:49:22.242Z,7.45
2023-05-25T04:51:52.484Z,7.68
2023-05-25T04:54:22.544Z,8.55
2023-05-25T04:56:54.980Z,7.22
2023-05-25T04:59:24.885Z,7.00
2023-05-25T05:01:54.919Z,6.22
2023-05-25T05:04:24.810Z,8.13
2023-05-25T05:06:56.706Z,7.00
2023-05-25T05:09:28.313Z,7.15
2023-05-25T05:12:03.137Z,6.43
2023-05-25T05:14:37.759Z,7.10
2023-05-25T05:17:08.294Z,8.02
2023-05-25T05:19:38.384Z,7.22
2023-05-25T05:22:13.431Z,7.40
2023-05-25T05:24:43.434Z,8.15
2023-05-25T05:27:19.257Z,6.00
2023-05-25T05:29:55.414Z,5.90
2023-05-25T05:32:25.806Z,5.95
2023-05-25T05:34:55.811Z,6.47
2023-05-25T05:37:44.600Z,6.43
2023-05-25T05:40:14.942Z,5.47
2023-05-25T05:42:48.102Z,5.38
2023-05-25T05:45:19.268Z,6.72
2023-05-25T05:47:49.170Z,5.43
2023-05-25T05:50:20.084Z,6.10
2023-05-25T05:52:50.194Z,5.30
2023-05-25T05:55:20.489Z,6.55
2023-05-25T05:57:55.533Z,5.20
2023-05-25T06:00:25.548Z,5.45
2023-05-25T06:02:55.681Z,6.50
2023-05-25T06:05:28.861Z,6.10
2023-05-25T06:07:59.457Z,6.20
2023-05-25T06:10:29.547Z,4.97
2023-05-25T06:13:02.038Z,6.15
2023-05-25T06:15:31.988Z,5.78
2023-05-25T06:18:03.836Z,6.15
2023-05-25T06:20:35.552Z,5.13
2023-05-25T06:23:05.595Z,5.35
2023-05-25T06:25:36.070Z,4.97
2023-05-25T06:28:08.516Z,6.00
2023-05-25T06:30:38.395Z,4.70
2023-05-25T06:33:09.809Z,5.25
2023-05-25T06:35:39.784Z,5.93
2023-05-25T06:38:09.704Z,5.43
2023-05-25T06:40:39.665Z,4.15
2023-05-25T06:43:12.257Z,4.65
2023-05-25T06:46:05.564Z,5.53
2023-05-25T06:48:35.474Z,4.50
2023-05-25T06:51:05.537Z,4.00
2023-05-25T06:53:35.477Z,4.43
2023-05-25T06:56:05.361Z,3.80
2023-05-25T06:58:37.986Z,5.50
2023-05-25T07:01:08.153Z,4.18
2023-05-25T07:03:38.870Z,4.47
2023-05-25T07:08:38.907Z,4.30
2023-05-25T07:11:10.751Z,4.47
2023-05-25T07:13:43.388Z,4.35
2023-05-25T07:16:13.488Z,4.78
2023-05-25T07:18:44.970Z,3.88
2023-05-25T07:21:14.862Z,4.65
2023-05-25T07:23:44.793Z,4.35
2023-05-25T07:26:14.735Z,4.10
2023-05-25T07:28:47.178Z,4.30
2023-05-25T07:31:17.835Z,3.88
2023-05-25T07:33:47.827Z,4.45
2023-05-25T07:36:17.695Z,3.40
2023-05-25T07:38:47.689Z,3.90
2023-05-25T07:41:17.544Z,3.97
2023-05-25T07:43:50.157Z,4.63
2023-05-25T07:46:22.513Z,3.95
2023-05-25T07:48:52.544Z,3.95
2023-05-25T07:51:23.537Z,3.65
2023-05-25T07:53:54.243Z,3.40
2023-05-25T07:56:24.203Z,4.40
2023-05-25T07:58:57.139Z,4.13
2023-05-25T08:01:27.280Z,4.40
2023-05-25T08:03:57.490Z,4.13
2023-05-25T08:06:27.804Z,3.45
2023-05-25T08:08:57.803Z,4.10
2023-05-25T08:11:28.478Z,3.92
2023-05-25T08:14:00.953Z,3.90
2023-05-25T08:16:30.866Z,4.35
2023-05-25T08:19:01.951Z,3.60
2023-05-25T08:21:35.153Z,4.22
2023-05-25T08:24:08.611Z,4.72
2023-05-25T08:26:53.920Z,4.60
2023-05-25T08:29:27.558Z,4.55
2023-05-25T08:31:57.441Z,5.25
2023-05-25T08:34:27.399Z,4.40
2023-05-25T08:36:57.547Z,4.80
2023-05-25T08:39:27.755Z,4.50
2023-05-25T08:41:57.759Z,4.72
2023-05-25T08:44:30.577Z,4.43
2023-05-25T08:47:01.207Z,4.95
2023-05-25T08:49:31.929Z,4.03
2023-05-25T08:52:02.048Z,4.35
2023-05-25T08:54:33.439Z,5.05
2023-05-25T08:57:08.472Z,5.00
2023-05-25T08:59:47.503Z,5.30
2023-05-25T09:02:25.799Z,4.25
2023-05-25T09:04:56.035Z,5.30
2023-05-25T09:07:26.732Z,4.47
2023-05-25T09:09:57.341Z,4.65
2023-05-25T09:12:27.537Z,4.30
2023-05-25T09:15:01.082Z,4.72
2023-05-25T09:17:31.742Z,4.57
2023-05-25T09:22:32.142Z,5.00
2023-05-25T09:25:02.318Z,5.07
2023-05-25T09:27:32.289Z,4.07
2023-05-25T09:30:05.117Z,4.40
2023-05-25T09:32:35.155Z,4.35
2023-05-25T09:35:10.241Z,4.22
2023-05-25T09:37:40.597Z,4.10
2023-05-25T09:42:41.348Z,3.85
2023-05-25T09:45:14.017Z,5.07
2023-05-25T09:47:44.004Z,4.65
2023-05-25T09:50:14.758Z,3.95
2023-05-25T09:52:44.625Z,4.53
2023-05-25T09:55:14.415Z,3.92
2023-05-25T09:57:44.526Z,4.40
2023-05-25T10:00:18.899Z,4.45
2023-05-25T10:02:48.771Z,3.92
2023-05-25T10:05:18.727Z,4.35
2023-05-25T10:07:49.032Z,3.75
2023-05-25T10:10:19.180Z,4.30
2023-05-25T10:12:50.195Z,4.57
2023-05-25T10:15:23.605Z,4.22
2023-05-25T10:17:56.526Z,4.30
2023-05-25T10:20:29.322Z,3.97
2023-05-25T10:23:03.210Z,3.83
2023-05-25T10:25:36.346Z,4.47
2023-05-25T10:28:09.881Z,4.20
2023-05-25T10:30:42.430Z,4.60
2023-05-25T10:33:13.329Z,4.28
2023-05-25T10:36:01.313Z,4.10
2023-05-25T10:38:34.089Z,3.83
2023-05-25T10:41:03.821Z,4.32
2023-05-25T10:43:33.923Z,4.22
2023-05-25T10:46:07.656Z,4.40
2023-05-25T10:48:40.688Z,4.85
2023-05-25T10:51:12.012Z,4.35
2023-05-25T10:53:46.814Z,4.38
2023-05-25T10:56:17.132Z,3.95
2023-05-25T10:58:52.618Z,4.70
2023-05-25T11:01:31.797Z,4.78
2023-05-25T11:04:17.968Z,4.60
2023-05-25T11:07:14.504Z,4.75
2023-05-25T11:09:46.449Z,3.63
2023-05-25T11:12:23.711Z,4.25
2023-05-25T11:15:15.607Z,4.03
2023-05-25T11:18:03.893Z,5.00
2023-05-25T11:20:46.778Z,5.38
2023-05-25T11:26:36.496Z,4.47
2023-05-25T11:29:28.785Z,4.65
2023-05-25T11:32:00.851Z,5.00
2023-05-25T11:34:48.664Z,4.30
2023-05-25T11:40:41.234Z,4.68
2023-05-25T11:45:41.801Z,4.00
2023-05-25T11:48:16.430Z,5.07
2023-05-25T11:50:48.953Z,5.60
2023-05-25T11:53:18.797Z,4.57
2023-05-25T11:55:55.620Z,4.63
2023-05-25T11:58:36.831Z,4.00
2023-05-25T12:01:20.126Z,4.72
2023-05-25T12:03:50.746Z,5.00
2023-05-25T12:06:31.002Z,5.72
2023-05-25T12:09:01.461Z,4.63
2023-05-25T12:14:02.370Z,4.38
2023-05-25T12:16:34.906Z,4.28
2023-05-25T12:19:05.324Z,4.75
2023-05-25T12:21:39.144Z,5.20
2023-05-25T12:24:09.482Z,4.45
2023-05-25T12:26:50.387Z,4.97
2023-05-25T12:29:20.294Z,5.57
2023-05-25T12:31:50.087Z,4.13
2023-05-25T12:34:21.274Z,4.88
2023-05-25T12:36:55.129Z,3.90
2023-05-25T12:39:39.356Z,5.03
2023-05-25T12:42:16.325Z,5.68
2023-05-25T12:44:47.107Z,4.15
2023-05-25T12:47:20.128Z,4.53
2023-05-25T12:49:52.020Z,4.53
2023-05-25T12:52:40.536Z,4.50
2023-05-25T12:55:25.970Z,4.88
2023-05-25T12:57:56.342Z,4.93
2023-05-25T13:00:27.747Z,4.82
2023-05-25T13:02:57.698Z,5.15
2023-05-25T13:05:28.753Z,4.65
2023-05-25T13:08:02.081Z,5.28
2023-05-25T13:10:33.018Z,5.63
2023-05-25T13:13:04.805Z,5.53
2023-05-25T13:15:34.830Z,4.90
2023-05-25T13:18:05.600Z,4.93
2023-05-25T13:20:36.947Z,5.38
2023-05-25T13:23:09.516Z,5.32
2023-05-25T13:25:39.700Z,4.85
2023-05-25T13:28:09.591Z,5.30
2023-05-25T13:30:42.864Z,4.72
2023-05-25T13:33:12.949Z,4.93
2023-05-25T13:35:58.149Z,5.57
2023-05-25T13:38:30.905Z,5.25
2023-05-25T13:41:00.690Z,5.00
2023-05-25T13:43:30.695Z,4.55
2023-05-25T13:46:00.603Z,4.95
2023-05-25T13:48:30.518Z,5.10
2023-05-25T13:51:00.412Z,5.25
2023-05-25T13:53:32.832Z,5.05
2023-05-25T13:56:03.290Z,4.15
2023-05-25T14:01:02.659Z,4.80
2023-05-25T14:03:32.614Z,4.45
2023-05-25T14:06:02.661Z,5.57
2023-05-25T14:08:35.201Z,4.35
2023-05-25T14:11:05.060Z,5.45
2023-05-25T14:13:36.324Z,5.03
2023-05-25T14:16:06.564Z,5.38
2023-05-25T14:18:36.462Z,5.20
2023-05-25T14:21:06.708Z,4.00
2023-05-25T14:23:39.103Z,5.18
2023-05-25T14:26:08.911Z,4.95
2023-05-25T14:28:39.102Z,4.53
2023-05-25T14:31:09.263Z,5.43
2023-05-25T14:33:40.760Z,3.92
2023-05-25T14:36:12.243Z,5.20
2023-05-25T14:38:45.012Z,4.47
2023-05-25T14:41:15.153Z,5.38
2023-05-25T14:43:45.361Z,5.25
2023-05-25T14:46:15.792Z,4.55
2023-05-25T14:51:15.898Z,4.38
2023-05-25T14:53:48.682Z,4.82
2023-05-25T14:56:22.079Z,5.18
2023-05-25T14:58:52.625Z,6.07
2023-05-25T15:01:25.212Z,5.15
2023-05-25T15:03:55.907Z,5.65
2023-05-25T15:06:26.206Z,4.55
2023-05-25T15:08:58.963Z,5.90
2023-05-25T15:11:29.557Z,4.72
2023-05-25T15:14:00.692Z,5.38
2023-05-25T15:16:31.004Z,4.57
2023-05-25T15:21:31.372Z,4.68
2023-05-25T15:24:04.218Z,4.80
2023-05-25T15:26:34.282Z,5.25
2023-05-25T15:29:04.420Z,5.25
2023-05-25T15:31:34.680Z,4.10
2023-05-25T15:34:04.943Z,5.25
2023-05-25T15:36:35.260Z,4.78
2023-05-25T15:39:09.195Z,5.43
2023-05-25T15:41:39.499Z,6.60
2023-05-25T15:44:12.864Z,4.80
2023-05-25T15:46:43.290Z,6.03
2023-05-25T15:49:13.855Z,5.05
2023-05-25T15:54:17.697Z,4.78
2023-05-25T15:56:47.892Z,4.45
2023-05-25T15:59:18.228Z,4.60
2023-05-25T16:01:48.627Z,4.50
2023-05-25T16:04:19.364Z,5.15
2023-05-25T16:06:49.718Z,5.53
2023-05-25T16:09:22.470Z,4.10
2023-05-25T16:11:52.453Z,5.00
2023-05-25T16:14:22.434Z,4.80
2023-05-25T16:16:52.411Z,4.68
2023-05-25T16:19:22.389Z,4.28
2023-05-25T16:21:52.446Z,4.97
2023-05-25T16:24:27.041Z,4.63
2023-05-25T16:26:57.818Z,4.65
2023-05-25T16:31:57.669Z,4.88
2023-05-25T16:34:27.630Z,4.90
2023-05-25T16:36:57.646Z,4.20
2023-05-25T16:39:30.233Z,4.18
2023-05-25T16:42:00.211Z,4.90
2023-05-25T16:44:30.501Z,5.18
2023-05-25T16:47:00.468Z,4.72
2023-05-25T16:49:30.299Z,4.53
2023-05-25T16:52:02.676Z,5.13
2023-05-25T16:54:35.066Z,4.93
2023-05-25T16:57:05.040Z,4.38
2023-05-25T16:59:34.909Z,5.45
2023-05-25T17:02:04.743Z,5.13
2023-05-25T17:04:34.556Z,4.45
2023-05-25T17:07:04.363Z,5.35
2023-05-25T17:09:37.935Z,4.72
2023-05-25T17:12:08.420Z,4.18
2023-05-25T17:14:38.311Z,5.05
2023-05-25T17:17:08.380Z,4.07
2023-05-25T17:19:38.403Z,4.70
2023-05-25T17:22:08.509Z,4.30
2023-05-25T17:24:41.071Z,3.88
2023-05-25T17:27:10.849Z,4.78
2023-05-25T17:29:41.923Z,4.25
2023-05-25T17:32:11.979Z,4.18
2023-05-25T17:34:41.921Z,4.00
2023-05-25T17:37:11.809Z,4.15
2023-05-25T17:39:45.119Z,4.97
2023-05-25T17:42:15.082Z,4.75
2023-05-25T17:44:45.058Z,5.85
2023-05-25T17:47:15.000Z,4.65
2023-05-25T17:49:45.076Z,4.65
2023-05-25T17:52:15.208Z,4.53
2023-05-25T17:54:47.866Z,5.53
2023-05-25T17:57:17.869Z,4.90
2023-05-25T17:59:47.952Z,5.20
2023-05-25T18:02:18.292Z,6.22
2023-05-25T18:04:48.659Z,4.88
2023-05-25T18:07:20.479Z,4.57
2023-05-25T18:10:02.399Z,4.32
2023-05-25T18:12:49.510Z,4.10
2023-05-25T18:15:22.231Z,4.68
2023-05-25T18:17:54.106Z,4.30
2023-05-25T18:20:40.586Z,4.43
2023-05-25T18:23:19.419Z,5.35
2023-05-25T18:25:58.511Z,6.30
2023-05-25T18:28:31.577Z,4.07
2023-05-25T18:31:04.521Z,4.43
2023-05-25T18:33:36.991Z,4.25
2023-05-25T18:36:08.156Z,4.65
2023-05-25T18:38:38.398Z,4.07
2023-05-25T18:41:12.376Z,4.22
2023-05-25T18:43:42.580Z,4.63
2023-05-25T18:46:13.235Z,4.90
2023-05-25T18:48:45.632Z,4.13
2023-05-25T18:51:44.526Z,3.65
2023-05-25T18:54:15.122Z,3.40
2023-05-25T18:56:51.898Z,4.82
2023-05-25T18:59:35.313Z,4.20
2023-05-25T19:04:38.172Z,4.57
2023-05-25T19:07:08.578Z,3.63
2023-05-25T19:09:38.607Z,4.28
2023-05-25T19:12:11.716Z,5.57
2023-05-25T19:14:42.246Z,4.25
2023-05-25T19:17:12.133Z,3.92
2023-05-25T19:19:41.988Z,4.28
2023-05-25T19:22:11.927Z,4.50
2023-05-25T19:24:44.291Z,3.63
2023-05-25T19:27:21.704Z,3.97
2023-05-25T19:29:51.543Z,4.15
2023-05-25T19:32:21.444Z,4.18
2023-05-25T19:34:51.358Z,3.65
2023-05-25T19:37:21.307Z,4.18
2023-05-25T19:39:51.268Z,5.78
2023-05-25T19:42:23.822Z,3.92
2023-05-25T19:44:53.703Z,4.05
2023-05-25T19:47:23.586Z,4.43
2023-05-25T19:49:53.506Z,5.00
2023-05-25T19:52:23.336Z,5.32
2023-05-25T19:54:53.150Z,3.63
2023-05-25T19:57:26.329Z,3.30
2023-05-25T19:59:56.445Z,4.75
2023-05-25T20:02:26.564Z,3.70
2023-05-25T20:04:56.383Z,4.25
2023-05-25T20:07:26.348Z,3.90
2023-05-25T20:09:56.235Z,4.13
2023-05-25T20:12:29.019Z,3.58
2023-05-25T20:14:58.873Z,3.95
2023-05-25T20:17:28.846Z,4.30
2023-05-25T20:20:00.904Z,3.97
2023-05-25T20:22:31.855Z,4.00
2023-05-25T20:25:01.774Z,3.78
2023-05-25T20:27:34.178Z,4.47
2023-05-25T20:30:04.033Z,4.93
2023-05-25T20:32:33.984Z,3.38
2023-05-25T20:35:03.956Z,4.03
2023-05-25T20:37:33.834Z,4.35
2023-05-25T20:40:03.656Z,3.40
2023-05-25T20:42:36.106Z,3.53
2023-05-25T20:45:06.426Z,3.83
2023-05-25T20:47:36.540Z,4.35
2023-05-25T20:50:06.683Z,3.90
2023-05-25T20:52:36.619Z,4.30
2023-05-25T20:55:07.067Z,3.60
2023-05-25T20:57:39.647Z,4.57
2023-05-25T21:00:11.447Z,3.45
2023-05-25T21:02:41.587Z,4.55
2023-05-25T21:05:12.198Z,3.30
2023-05-25T21:07:42.321Z,3.92
2023-05-25T21:10:12.661Z,3.35
2023-05-25T21:12:45.342Z,3.83
2023-05-25T21:15:15.486Z,3.70
2023-05-25T21:17:45.730Z,3.75
2023-05-25T21:20:16.180Z,3.97
2023-05-25T21:22:46.393Z,3.50
2023-05-25T21:25:16.550Z,3.60
2023-05-25T21:27:49.525Z,3.80
2023-05-25T21:30:19.764Z,3.85
2023-05-25T21:32:50.178Z,4.05
2023-05-25T21:35:21.115Z,3.33
2023-05-25T21:37:51.239Z,3.95
2023-05-25T21:40:21.510Z,4.75
2023-05-25T21:42:55.110Z,4.80
2023-05-25T21:45:25.233Z,3.72
2023-05-25T21:47:55.470Z,3.90
2023-05-25T22:31:00.276Z,3.33
2023-05-25T22:33:50.241Z,4.03
2023-05-25T22:36:22.608Z,4.88
2023-05-25T22:39:06.536Z,3.50
2023-05-25T22:41:39.646Z,4.13
2023-05-25T22:44:09.501Z,4.55
2023-05-25T22:46:47.914Z,4.22
2023-05-25T22:49:18.047Z,4.00
2023-05-25T22:51:48.100Z,3.92
2023-05-25T22:54:19.557Z,3.85
2023-05-25T22:57:19.581Z,4.55
2023-05-25T22:59:52.662Z,4.03
2023-05-25T23:02:25.878Z,3.72
2023-05-25T23:04:55.951Z,4.88
2023-05-25T23:07:41.761Z,4.78
2023-05-25T23:11:06.274Z,4.53
2023-05-25T23:24:38.068Z,4.03
2023-05-25T23:27:09.057Z,3.50
2023-05-25T23:29:39.056Z,4.00
2023-05-25T23:32:09.827Z,4.38
2023-05-25T23:34:42.336Z,4.13
2023-05-25T23:37:12.579Z,4.05
2023-05-25T23:39:42.478Z,4.20
2023-05-25T23:42:15.529Z,3.78
2023-05-25T23:44:45.441Z,4.35
2023-05-25T23:47:15.255Z,4.20
2023-05-25T23:49:47.744Z,3.53
2023-05-25T23:52:17.714Z,3.85
2023-05-25T23:54:47.611Z,4.82
2023-05-25T23:57:17.607Z,4.68
2023-05-25T23:59:47.490Z,3.95
